Newport Beach, CA (92662)

5:52 AM PDT on April 24, 2017 (GMT -0700)
Balboa L Street | | Change Station
Active Advisory: Beach Hazard Statement

Elev 20 ft 33.60 °N, 117.89 °W | Updated 4 minutes ago

Overcast
Overcast
61.4 °F
Feels Like 61.4 °F
N
3.0
Wind Variable Wind from ESE
Gusts 8.0 mph

Today
High -- | Low -- °F
--% Chance of Precip.
Yesterday
High -- | Low -- °F
Precip. -- in
Pressure 29.88 in
Visibility 10.0 miles
Clouds Overcast 2100 ft
Dew Point Not available.
Humidity Not available.
Rainfall 0.00 in
Snow Depth Not available.
6:10 AM 7:29 PM
Waning Crescent, 6% visible
METAR KSNA 241153Z AUTO 11003KT 10SM OVC021 17/12 A2988 RMK AO2 SLP116 T01720122 10172 20161 53003
Pressure 29.88 in
Visibility 10.0 miles
Clouds Overcast 2100 ft
Dew Point Not available.
Humidity Not available.
Rainfall 0.00 in
Snow Depth Not available.
6:10 AM 7:29 PM
Waning Crescent, 6% visible
METAR KSNA 241153Z AUTO 11003KT 10SM OVC021 17/12 A2988 RMK AO2 SLP116 T01720122 10172 20161 53003

Get Your Daily Forecast Email!

Thanks for signing up!

Be on the lookout for a verification email in your inbox.

You'll start receiving severe weather alerts in your inbox..

×

10-Day Weather Forecast

Almanac

Astronomy

Apr. 24, 2017 Rise Set
Actual Time
Civil Twilight
Nautical Twilight
Astronomical Twilight
Moon
Length of Visible Light
Length of Day
Tomorrow will be .
, % of the Moon is Illuminated

Today's Extremes

State Highs State Lows

Community

WunderPhotos

WunderBlog® & News

Nearby

Air Quality

  Air Quality AQ Index Pollutant
Not available.

Snow Depth

Station Depth Elevation

Earthquake Activity

City Distance Mag. Time & Date
Minimum magnitude displayed is 2.5.

Coastal Water Temperatures

Place Temperature

Stations

Nearby Weather Stations

Station Location Temp. Windchill Dew Point Humidity Wind Precip. Elev Updated Type
                   

Watches & Warnings

Beach Hazard Statement
Issued: 2:13 AM PDT Apr. 24, 2017 – National Weather Service

... Beach hazards statement remains in effect through this
evening...

* waves and surf... surf 3 to 6 feet with occasional sets to 7 feet
through this evening.

* Impacts... dangerous conditions in the surf zone due to
elevated surf and strong rip currents.

Precautionary/preparedness actions...

Swim near a lifeguard. If caught in a rip current... relax and
float. Do not swim against the current. If able... swim in a
direction following the shoreline. If unable to escape... face the
shore and call or wave for help.